Time;durP1;ratioP1;P1;durP2;ratioP2;P2;SDS_P1;SDS_P2;PMS_P1;PMS_P2;Temp;Humidity;BMP_temperature;BMP_pressure;BME280_temperature;BME280_humidity;BME280_pressure;Samples;Min_cycle;Max_cycle;Signal;HPM_P1;HPM_P2
2023/05/15 00:02:17;;;;;;;1.85;1.27;;;;;;;17.66;58.00;100817.91;5208135;28;20053;-90
2023/05/15 00:05:08;;;;;;;0.52;0.52;;;;;;;17.73;57.44;100815.75;5209032;28;20064;-90
2023/05/15 00:07:59;;;;;;;1.17;1.17;;;;;;;17.83;57.39;100811.63;5223114;28;20043;-90
2023/05/15 00:10:50;;;;;;;3.00;1.73;;;;;;;17.81;57.67;100810.03;5212786;28;20243;-91
2023/05/15 00:13:40;;;;;;;0.60;0.60;;;;;;;17.69;57.46;100811.56;5210241;28;20107;-90
2023/05/15 00:16:31;;;;;;;0.70;0.70;;;;;;;17.68;57.32;100809.84;5214425;28;20068;-90
2023/05/15 00:19:22;;;;;;;1.33;1.23;;;;;;;17.68;57.19;100805.41;5217085;28;20021;-90
2023/05/15 00:22:13;;;;;;;1.15;1.05;;;;;;;17.62;57.97;100803.94;5208450;28;20049;-91
2023/05/15 00:25:04;;;;;;;6.03;1.38;;;;;;;17.62;58.21;100809.25;5215047;28;20132;-91
2023/05/15 00:27:55;;;;;;;1.15;1.15;;;;;;;17.60;57.05;100805.81;5215878;28;20029;-90
2023/05/15 00:30:45;;;;;;;0.88;0.88;;;;;;;17.54;57.25;100800.88;5223105;28;20116;-90
2023/05/15 00:33:36;;;;;;;1.55;0.65;;;;;;;17.34;57.96;100804.63;5230645;28;20036;-90
2023/05/15 00:36:27;;;;;;;0.65;0.65;;;;;;;17.38;58.17;100795.53;5219385;28;20053;-89
2023/05/15 00:39:18;;;;;;;1.75;1.48;;;;;;;17.49;58.02;100797.59;5207143;28;20065;-91
2023/05/15 00:42:09;;;;;;;0.73;0.73;;;;;;;17.39;58.72;100797.25;5208298;28;20030;-90
2023/05/15 00:45:01;;;;;;;0.43;0.43;;;;;;;17.37;57.91;100800.94;5214805;28;20029;-90
2023/05/15 00:47:53;;;;;;;2.08;0.93;;;;;;;17.35;57.93;100794.84;5210544;28;20116;-89
2023/05/15 00:50:44;;;;;;;1.67;1.58;;;;;;;17.35;57.80;100801.03;5214705;28;20049;-90
2023/05/15 00:53:36;;;;;;;1.92;1.65;;;;;;;17.17;59.64;100796.72;5216112;28;20033;-90
2023/05/15 00:56:29;;;;;;;1.05;1.05;;;;;;;17.24;57.98;100798.94;5231702;28;20033;-90
2023/05/15 00:59:23;;;;;;;1.65;1.55;;;;;;;17.24;60.90;100798.94;5208914;28;20021;-88
2023/05/15 01:02:16;;;;;;;2.17;1.98;;;;;;;17.31;59.52;100788.84;5223248;28;20067;-89
2023/05/15 01:05:08;;;;;;;1.10;1.08;;;;;;;17.13;61.72;100790.72;5209335;28;20072;-91
2023/05/15 01:08:25;;;;;;;1.98;1.50;;;;;;;16.66;65.18;100786.94;5204119;28;20033;-90
2023/05/15 01:11:16;;;;;;;1.25;1.13;;;;;;;16.98;60.15;100782.63;5209631;28;20044;-90
2023/05/15 01:14:07;;;;;;;1.05;1.02;;;;;;;17.07;60.63;100778.63;5209053;28;20091;-91
2023/05/15 01:16:58;;;;;;;1.45;1.35;;;;;;;17.08;59.58;100784.78;5205910;28;20069;-89
2023/05/15 01:19:51;;;;;;;0.65;0.65;;;;;;;17.03;59.42;100779.72;5211232;28;20022;-89
2023/05/15 01:23:01;;;;;;;1.88;1.77;;;;;;;16.96;59.51;100789.81;5213939;28;20021;-90
2023/05/15 01:26:21;;;;;;;2.58;1.48;;;;;;;17.04;60.46;100776.13;5213949;28;20037;-90
2023/05/15 01:29:31;;;;;;;1.90;1.20;;;;;;;17.04;59.65;100780.59;5192485;28;20130;-90
2023/05/15 01:32:49;;;;;;;2.17;1.30;;;;;;;17.06;60.11;100789.34;5210298;28;20583;-89
2023/05/15 01:35:55;;;;;;;12.05;2.03;;;;;;;16.97;60.22;100780.94;5213148;28;20047;-90
2023/05/15 01:38:51;;;;;;;1.42;1.35;;;;;;;16.89;60.21;100782.22;5211815;28;20021;-90
2023/05/15 01:41:58;;;;;;;1.27;1.17;;;;;;;16.84;60.82;100785.13;5211366;28;20035;-90
2023/05/15 01:44:53;;;;;;;0.80;0.80;;;;;;;16.84;61.97;100788.63;5208890;28;20087;-90
2023/05/15 01:47:46;;;;;;;2.58;1.60;;;;;;;16.62;64.23;100786.25;5188340;28;20489;-91
2023/05/15 01:50:39;;;;;;;5.53;2.63;;;;;;;16.42;66.15;100791.69;5185902;28;20034;-89
2023/05/15 01:53:31;;;;;;;3.22;2.80;;;;;;;16.66;63.20;100790.44;5204643;28;20061;-90
2023/05/15 01:56:23;;;;;;;1.10;1.07;;;;;;;16.60;63.51;100798.69;5195326;28;20447;-90
2023/05/15 01:59:15;;;;;;;3.55;1.45;;;;;;;16.62;62.95;100794.19;5185028;28;20033;-89
2023/05/15 02:02:06;;;;;;;1.65;1.55;;;;;;;16.62;62.54;100796.84;5188291;28;20069;-88
2023/05/15 02:04:58;;;;;;;0.85;0.85;;;;;;;16.34;63.35;100800.03;5192674;28;20063;-90
2023/05/15 02:07:50;;;;;;;1.63;1.42;;;;;;;16.52;62.05;100807.06;5189684;28;20034;-91
2023/05/15 02:10:41;;;;;;;1.73;1.40;;;;;;;16.56;61.64;100802.47;5188302;28;20037;-90
2023/05/15 02:13:33;;;;;;;1.10;0.95;;;;;;;16.51;61.73;100815.94;5194410;28;20535;-90
2023/05/15 02:16:24;;;;;;;0.70;0.70;;;;;;;16.30;62.33;100817.88;5200555;28;20112;-90
2023/05/15 02:19:15;;;;;;;2.55;1.05;;;;;;;16.47;61.88;100814.34;5190639;28;20014;-90
2023/05/15 02:22:06;;;;;;;2.80;1.70;;;;;;;16.43;61.59;100804.00;5184733;28;20064;-90
2023/05/15 02:24:56;;;;;;;1.50;1.40;;;;;;;16.35;62.19;100804.41;5188825;28;20033;-89
2023/05/15 02:27:56;;;;;;;1.70;1.60;;;;;;;16.38;62.78;100804.22;5185843;28;20243;-89
2023/05/15 02:31:16;;;;;;;1.38;1.27;;;;;;;16.31;62.33;100813.41;5184267;28;20030;-89
2023/05/15 02:34:16;;;;;;;2.72;1.48;;;;;;;15.96;65.14;100808.94;5188265;28;20069;-90
2023/05/15 02:37:13;;;;;;;2.72;1.20;;;;;;;16.14;62.89;100801.03;5187403;28;20099;-90
2023/05/15 02:40:08;;;;;;;2.30;2.03;;;;;;;16.24;62.55;100806.72;5211786;28;20145;-91
2023/05/15 02:43:00;;;;;;;1.48;1.40;;;;;;;15.55;66.82;100814.34;5183188;28;20091;-91
2023/05/15 02:45:51;;;;;;;1.13;0.95;;;;;;;15.66;64.91;100812.03;5186945;28;20030;-89
2023/05/15 02:48:42;;;;;;;3.08;2.80;;;;;;;16.03;62.73;100815.63;5183755;28;20017;-90
2023/05/15 02:51:35;;;;;;;2.50;2.30;;;;;;;15.92;64.06;100817.91;5183956;28;20355;-90
2023/05/15 02:54:26;;;;;;;1.50;1.40;;;;;;;15.70;66.87;100815.44;5191712;28;20108;-90
2023/05/15 02:57:17;;;;;;;2.47;2.10;;;;;;;15.64;67.46;100808.63;5188484;28;20042;-89
2023/05/15 03:00:12;;;;;;;0.90;0.90;;;;;;;15.10;70.38;100811.94;5188025;28;20022;-90
2023/05/15 03:03:03;;;;;;;2.78;2.05;;;;;;;14.96;71.18;100806.41;5189374;28;20033;-89
2023/05/15 03:05:54;;;;;;;1.90;1.80;;;;;;;15.06;69.38;100812.13;5185120;28;20037;-90
2023/05/15 03:08:45;;;;;;;1.88;1.77;;;;;;;15.07;69.36;100809.44;5189828;28;20080;-90
2023/05/15 03:11:35;;;;;;;1.73;1.40;;;;;;;15.21;68.11;100806.16;5189015;28;20080;-90
2023/05/15 03:14:26;;;;;;;2.25;2.05;;;;;;;15.27;67.58;100799.75;5195643;28;20025;-90
2023/05/15 03:17:17;;;;;;;2.60;1.92;;;;;;;14.94;70.23;100808.25;5197710;28;20046;-91
2023/05/15 03:20:08;;;;;;;6.05;3.50;;;;;;;14.65;71.48;100802.44;5198990;28;20040;-91
2023/05/15 03:22:58;;;;;;;2.53;2.10;;;;;;;15.04;68.45;100799.00;5211163;28;20044;-89
2023/05/15 03:25:49;;;;;;;1.83;1.52;;;;;;;14.36;73.12;100801.88;5215603;28;20072;-89
2023/05/15 03:28:40;;;;;;;3.25;3.00;;;;;;;15.04;68.70;100793.72;5209541;28;20075;-89
2023/05/15 03:31:30;;;;;;;3.08;2.28;;;;;;;14.12;74.66;100787.94;5195204;28;20565;-90
2023/05/15 03:34:21;;;;;;;3.75;3.17;;;;;;;14.58;70.92;100799.19;5196938;28;20025;-89
2023/05/15 03:37:12;;;;;;;1.90;1.75;;;;;;;14.74;70.53;100796.81;5191428;28;20104;-91
2023/05/15 03:40:03;;;;;;;2.20;2.00;;;;;;;14.27;73.52;100802.25;5205060;28;20013;-88
2023/05/15 03:42:54;;;;;;;2.47;2.28;;;;;;;14.87;69.11;100794.50;5192060;28;20029;-90
2023/05/15 03:45:45;;;;;;;2.40;2.22;;;;;;;14.58;71.53;100796.56;5199490;28;20044;-91
2023/05/15 03:48:36;;;;;;;5.47;2.83;;;;;;;14.64;68.85;100795.44;5195631;28;20139;-90
2023/05/15 03:51:26;;;;;;;3.60;2.72;;;;;;;14.98;67.30;100793.13;5196581;28;20517;-90
2023/05/15 03:54:17;;;;;;;1.20;1.20;;;;;;;15.09;66.69;100791.72;5198675;28;20029;-90
2023/05/15 03:57:08;;;;;;;2.45;1.88;;;;;;;15.13;66.34;100786.31;5199956;28;20408;-90
2023/05/15 04:00:00;;;;;;;2.05;1.90;;;;;;;15.13;66.32;100791.59;5206027;28;20031;-90
2023/05/15 04:02:50;;;;;;;2.55;2.35;;;;;;;15.08;67.20;100789.16;5217399;28;20055;-90
2023/05/15 04:05:41;;;;;;;2.17;1.75;;;;;;;14.99;67.92;100790.44;5200959;28;20037;-90
2023/05/15 04:08:32;;;;;;;1.80;1.70;;;;;;;15.20;65.51;100788.63;5205390;28;20938;-89
2023/05/15 04:11:23;;;;;;;2.20;2.00;;;;;;;14.90;67.10;100786.41;5204316;28;20055;-90
2023/05/15 04:14:14;;;;;;;2.38;1.65;;;;;;;15.15;65.31;100784.47;5204351;28;20447;-92
2023/05/15 04:17:09;;;;;;;2.42;2.22;;;;;;;15.19;64.70;100786.03;5219621;28;20033;-93
2023/05/15 04:21:02;;;;;;;2.85;2.65;;;;;;;15.19;64.72;100786.03;5220508;28;20028;-92
2023/05/15 04:24:00;;;;;;;3.13;2.03;;;;;;;15.26;64.32;100788.34;5202100;28;20509;-91
2023/05/15 04:26:51;;;;;;;4.10;2.00;;;;;;;15.30;63.87;100796.97;5199427;28;20046;-91
2023/05/15 04:29:42;;;;;;;5.50;3.22;;;;;;;15.32;64.16;100797.78;5188764;28;20036;-92
2023/05/15 04:32:35;;;;;;;2.78;2.15;;;;;;;15.29;63.85;100792.63;5195424;28;20064;-92
2023/05/15 04:35:26;;;;;;;2.38;2.17;;;;;;;15.33;64.24;100794.16;5192935;28;20029;-92
2023/05/15 04:38:17;;;;;;;3.72;2.83;;;;;;;15.04;66.48;100791.09;5189419;28;20029;-92
2023/05/15 04:41:08;;;;;;;2.85;2.35;;;;;;;14.81;67.66;100796.53;5188541;28;20049;-92
2023/05/15 04:43:59;;;;;;;1.98;1.88;;;;;;;15.15;64.94;100808.25;5193598;28;20033;-92
2023/05/15 04:46:49;;;;;;;2.28;2.08;;;;;;;15.24;64.67;100808.69;5196747;28;20083;-92
2023/05/15 04:49:41;;;;;;;24.27;13.82;;;;;;;15.29;64.31;100807.63;5198074;28;20017;-92
2023/05/15 04:52:32;;;;;;;5.80;5.28;;;;;;;15.23;64.60;100811.41;5189089;28;20037;-91
2023/05/15 04:55:23;;;;;;;2.35;2.15;;;;;;;15.27;65.60;100812.97;5202690;28;20148;-92
2023/05/15 04:58:14;;;;;;;2.65;2.45;;;;;;;15.00;67.15;100809.78;5186232;28;20033;-92
2023/05/15 05:01:05;;;;;;;4.13;3.17;;;;;;;15.21;64.96;100805.31;5195319;28;20045;-93
2023/05/15 05:03:56;;;;;;;3.10;2.25;;;;;;;15.08;67.00;100811.13;5180383;28;20029;-91
2023/05/15 05:06:48;;;;;;;3.60;3.03;;;;;;;14.92;67.97;100810.09;5187822;28;20040;-92
2023/05/15 05:10:05;;;;;;;2.97;2.42;;;;;;;14.87;67.48;100804.19;5203143;28;20057;-93
2023/05/15 05:12:56;;;;;;;2.28;2.08;;;;;;;14.67;68.27;100811.16;5199509;28;20106;-92
2023/05/15 05:15:53;;;;;;;2.72;2.53;;;;;;;14.87;66.14;100817.38;5199613;28;20064;-90
2023/05/15 05:18:44;;;;;;;1.58;1.48;;;;;;;14.52;68.45;100811.78;5192862;28;20041;-91
2023/05/15 05:21:35;;;;;;;4.63;2.90;;;;;;;14.75;67.55;100811.69;5194779;28;20037;-91
2023/05/15 05:24:27;;;;;;;2.22;2.13;;;;;;;14.35;69.30;100821.28;5196187;28;20025;-91
2023/05/15 05:27:18;;;;;;;2.83;1.30;;;;;;;14.27;69.30;100812.81;5196818;28;20059;-91
2023/05/15 05:30:09;;;;;;;2.97;2.78;;;;;;;14.63;67.09;100813.06;5190557;28;20033;-90
2023/05/15 05:33:00;;;;;;;3.65;1.75;;;;;;;14.71;67.31;100819.84;5206286;28;20033;-92
2023/05/15 05:35:51;;;;;;;2.15;1.95;;;;;;;14.58;68.41;100808.91;5207365;28;20041;-89
2023/05/15 05:38:42;;;;;;;1.67;1.58;;;;;;;14.59;67.54;100823.81;5213500;28;20032;-87
2023/05/15 05:41:33;;;;;;;2.42;2.15;;;;;;;14.59;67.59;100823.81;5212863;28;20052;-90
2023/05/15 05:44:25;;;;;;;1.88;1.73;;;;;;;14.64;67.16;100821.84;5211566;28;20033;-89
2023/05/15 05:47:15;;;;;;;2.35;2.15;;;;;;;14.56;67.47;100824.81;5214044;28;20044;-91
2023/05/15 05:50:07;;;;;;;2.13;1.92;;;;;;;14.68;67.09;100825.25;5216144;28;20097;-91
2023/05/15 05:52:58;;;;;;;2.22;2.03;;;;;;;14.55;67.81;100816.94;5209562;28;20050;-91
2023/05/15 05:55:48;;;;;;;4.28;3.72;;;;;;;14.50;67.94;100821.59;5213083;28;20090;-91
2023/05/15 05:58:39;;;;;;;1.67;1.58;;;;;;;14.12;69.14;100817.81;5214721;28;20029;-92
2023/05/15 06:01:30;;;;;;;2.42;2.13;;;;;;;14.58;66.64;100827.41;5207952;28;20119;-92
2023/05/15 06:04:21;;;;;;;2.65;2.45;;;;;;;14.12;68.74;100820.44;5277233;22;20087;-81
2023/05/15 06:07:12;;;;;;;1.77;1.67;;;;;;;14.66;66.77;100827.97;5231238;28;20033;-84
2023/05/15 06:10:03;;;;;;;3.65;3.13;;;;;;;14.30;68.08;100834.66;5187853;28;20025;-83
2023/05/15 06:12:55;;;;;;;1.58;1.48;;;;;;;14.67;66.42;100829.66;5212812;28;20063;-82
2023/05/15 06:15:46;;;;;;;2.05;1.90;;;;;;;14.55;66.87;100827.50;5226550;28;20039;-83
2023/05/15 06:18:37;;;;;;;3.15;2.90;;;;;;;14.16;69.10;100842.28;5234420;28;20081;-82
2023/05/15 06:21:27;;;;;;;2.75;2.55;;;;;;;14.64;66.47;100835.91;5224129;28;20033;-82
2023/05/15 06:24:18;;;;;;;2.22;1.98;;;;;;;14.73;65.88;100842.63;5209466;28;20120;-81
2023/05/15 06:27:09;;;;;;;1.95;1.55;;;;;;;14.67;66.78;100842.84;5213198;28;20120;-81
2023/05/15 06:30:00;;;;;;;3.47;3.17;;;;;;;14.43;67.92;100844.72;5209468;28;20033;-82
2023/05/15 06:32:52;;;;;;;3.80;2.05;;;;;;;14.22;68.74;100841.19;5205055;28;20037;-81
2023/05/15 06:35:43;;;;;;;3.53;2.20;;;;;;;14.11;69.22;100850.38;5200993;28;20898;-81
2023/05/15 06:38:34;;;;;;;3.55;2.20;;;;;;;14.53;67.13;100850.47;5208736;28;20032;-83
2023/05/15 06:41:25;;;;;;;2.47;2.28;;;;;;;14.60;66.81;100851.94;5226252;28;20029;-82
2023/05/15 06:44:16;;;;;;;6.13;3.22;;;;;;;14.11;68.45;100855.66;5215913;28;20040;-82
2023/05/15 06:47:07;;;;;;;4.22;3.53;;;;;;;13.34;71.74;100854.13;5212988;28;20037;-82
2023/05/15 06:49:58;;;;;;;2.97;2.78;;;;;;;13.86;69.52;100861.03;5219887;28;20496;-82
2023/05/15 06:52:48;;;;;;;2.50;2.30;;;;;;;13.92;69.39;100860.81;5206295;28;20075;-82
2023/05/15 06:55:39;;;;;;;2.95;2.75;;;;;;;13.84;69.99;100853.19;5204044;28;20037;-82
2023/05/15 06:58:30;;;;;;;2.53;2.10;;;;;;;14.20;68.09;100858.84;5231368;28;20636;-82
2023/05/15 07:01:21;;;;;;;2.38;2.17;;;;;;;14.26;68.07;100859.47;5228094;28;20045;-82
2023/05/15 07:04:12;;;;;;;5.88;3.47;;;;;;;14.56;66.53;100861.75;5200763;28;20120;-82
2023/05/15 07:07:03;;;;;;;2.95;2.65;;;;;;;14.32;67.77;100861.84;5200979;28;20272;-83
2023/05/15 07:10:01;;;;;;;2.75;2.45;;;;;;;14.20;68.49;100861.50;5213214;28;20304;-83
2023/05/15 07:12:52;;;;;;;6.47;2.30;;;;;;;14.44;67.59;100864.94;5196162;28;20414;-83
2023/05/15 07:15:43;;;;;;;2.60;1.73;;;;;;;14.61;66.52;100862.44;5198413;28;20052;-83
2023/05/15 07:18:33;;;;;;;3.63;3.30;;;;;;;14.35;67.32;100858.22;5205904;28;20102;-84
2023/05/15 07:21:24;;;;;;;2.38;2.17;;;;;;;14.52;66.56;100854.03;5201909;28;20688;-83
2023/05/15 07:24:16;;;;;;;3.00;1.90;;;;;;;14.71;65.59;100847.09;5204493;28;20025;-84
2023/05/15 07:27:07;;;;;;;2.42;2.17;;;;;;;14.73;66.15;100852.31;5203005;28;20117;-83
2023/05/15 07:30:02;;;;;;;3.85;2.85;;;;;;;14.54;65.82;100849.56;5207725;28;20330;-84
2023/05/15 07:32:56;;;;;;;3.88;2.95;;;;;;;14.67;64.87;100853.41;5211420;28;20042;-83
2023/05/15 07:35:49;;;;;;;3.38;2.40;;;;;;;14.58;65.60;100848.53;5204213;28;20053;-83
2023/05/15 07:38:41;;;;;;;4.10;2.70;;;;;;;14.56;65.86;100845.91;5210350;28;20029;-82
2023/05/15 07:41:50;;;;;;;2.35;2.05;;;;;;;14.68;66.06;100855.13;5205621;28;20283;-83
2023/05/15 07:45:14;;;;;;;2.10;1.83;;;;;;;14.74;65.76;100852.25;5188980;28;20057;-83
2023/05/15 07:48:20;;;;;;;2.17;1.75;;;;;;;14.29;66.88;100842.66;5207955;28;20059;-85
2023/05/15 07:51:14;;;;;;;2.42;2.22;;;;;;;14.62;65.83;100844.81;5228023;28;20052;-85
2023/05/15 07:54:38;;;;;;;7.95;4.13;;;;;;;14.76;65.75;100836.34;5195075;28;20021;-83
2023/05/15 07:57:30;;;;;;;3.45;3.05;;;;;;;14.78;65.68;100835.34;5220464;28;20021;-83
2023/05/15 08:00:21;;;;;;;2.17;1.98;;;;;;;14.78;65.11;100840.63;5217492;28;20021;-83
2023/05/15 08:03:12;;;;;;;2.38;2.17;;;;;;;14.88;65.24;100840.25;5203277;28;20039;-85
2023/05/15 08:06:03;;;;;;;3.10;2.80;;;;;;;14.57;65.57;100833.59;5209053;28;20091;-83
2023/05/15 08:08:54;;;;;;;1.95;1.85;;;;;;;14.89;64.83;100826.09;5206383;28;20045;-83
2023/05/15 08:11:45;;;;;;;1.60;1.50;;;;;;;14.40;64.62;100831.63;5201242;28;20051;-83
2023/05/15 08:14:36;;;;;;;4.38;3.72;;;;;;;14.58;65.77;100824.75;5216475;28;20029;-84
2023/05/15 08:17:26;;;;;;;3.22;1.88;;;;;;;14.64;66.30;100830.63;5219545;28;20033;-84
2023/05/15 08:20:17;;;;;;;2.00;1.80;;;;;;;14.76;66.00;100831.06;5233719;28;20021;-84
2023/05/15 08:23:08;;;;;;;8.02;2.88;;;;;;;14.91;65.24;100829.56;5208630;28;20132;-83
2023/05/15 08:25:59;;;;;;;4.57;2.63;;;;;;;14.87;65.00;100826.19;5213808;28;20033;-81
2023/05/15 08:28:50;;;;;;;1.83;1.70;;;;;;;14.91;65.15;100813.69;5204653;28;20044;-81
2023/05/15 08:31:41;;;;;;;2.70;2.45;;;;;;;15.13;64.76;100818.88;5215707;28;20029;-81
2023/05/15 08:34:31;;;;;;;1.73;1.63;;;;;;;15.08;65.54;100815.59;5221339;28;20040;-82
2023/05/15 08:37:22;;;;;;;2.33;2.00;;;;;;;15.25;64.94;100823.63;5210257;28;20125;-82
2023/05/15 08:40:13;;;;;;;2.72;1.95;;;;;;;15.25;65.07;100817.44;5212293;28;20013;-82
2023/05/15 08:43:13;;;;;;;2.80;2.55;;;;;;;15.43;64.46;100813.97;5204179;28;20059;-82
2023/05/15 08:46:05;;;;;;;2.42;2.05;;;;;;;15.46;64.04;100817.41;5210348;28;20060;-82
2023/05/15 08:48:58;;;;;;;3.33;2.97;;;;;;;15.50;63.78;100816.34;5218449;28;20052;-82
2023/05/15 08:51:49;;;;;;;5.72;3.22;;;;;;;15.29;63.25;100810.28;5205091;28;20037;-83
2023/05/15 08:54:40;;;;;;;4.22;2.85;;;;;;;15.25;62.87;100806.88;5216558;28;20449;-83
2023/05/15 08:57:32;;;;;;;1.95;1.83;;;;;;;15.44;61.44;100809.56;5203201;28;20033;-83
2023/05/15 09:00:22;;;;;;;1.60;1.50;;;;;;;15.25;61.37;100810.41;5189060;28;20439;-83
2023/05/15 09:03:21;;;;;;;1.92;1.83;;;;;;;15.42;62.03;100814.91;5219427;28;20087;-83
2023/05/15 09:06:36;;;;;;;2.25;2.10;;;;;;;15.38;61.16;100823.91;5218748;28;20122;-82
2023/05/15 09:09:28;;;;;;;2.58;2.38;;;;;;;15.30;59.73;100822.53;5214458;28;20044;-83
2023/05/15 09:12:20;;;;;;;1.65;1.48;;;;;;;15.21;59.37;100822.03;5200247;28;20033;-82
2023/05/15 09:15:14;;;;;;;2.50;2.33;;;;;;;15.38;60.44;100818.63;5209049;28;20093;-82
2023/05/15 09:18:06;;;;;;;2.72;1.88;;;;;;;15.48;60.96;100826.16;5207885;28;20052;-83
2023/05/15 09:21:20;;;;;;;5.47;2.28;;;;;;;15.34;60.23;100827.63;5209247;28;20037;-82
2023/05/15 09:24:14;;;;;;;2.50;2.17;;;;;;;15.40;59.71;100824.72;5202876;28;20105;-83
2023/05/15 09:27:06;;;;;;;2.30;2.10;;;;;;;15.65;60.31;100814.78;5212557;28;20076;-83
2023/05/15 09:30:08;;;;;;;2.05;1.92;;;;;;;15.64;61.10;100828.94;5206961;28;20036;-82
2023/05/15 09:33:02;;;;;;;2.65;2.17;;;;;;;15.69;60.11;100816.38;5212464;28;20120;-82
2023/05/15 09:35:55;;;;;;;2.72;2.38;;;;;;;15.66;59.10;100817.34;5202583;28;20025;-82
2023/05/15 09:38:48;;;;;;;1.60;1.50;;;;;;;15.86;59.30;100812.94;5214483;28;20056;-83
2023/05/15 09:41:42;;;;;;;2.97;2.70;;;;;;;15.94;59.72;100815.22;5214383;28;20060;-83
2023/05/15 09:44:33;;;;;;;3.03;2.78;;;;;;;16.02;58.61;100824.50;5216089;28;20028;-83
2023/05/15 09:47:25;;;;;;;1.83;1.73;;;;;;;16.02;59.10;100818.34;5215415;28;20029;-83
2023/05/15 09:50:30;;;;;;;5.05;2.25;;;;;;;15.97;58.80;100808.00;5207624;28;20086;-83
2023/05/15 09:53:22;;;;;;;3.13;2.40;;;;;;;16.02;57.90;100803.31;5203607;28;20029;-83
2023/05/15 09:56:13;;;;;;;2.65;2.45;;;;;;;16.04;57.99;100798.81;5201218;28;20033;-83
2023/05/15 09:59:03;;;;;;;1.92;1.77;;;;;;;16.20;58.63;100795.41;5196173;28;20408;-83
2023/05/15 10:01:54;;;;;;;2.60;2.35;;;;;;;16.22;57.58;100798.84;5201451;28;20230;-83
2023/05/15 10:04:55;;;;;;;2.45;1.92;;;;;;;16.16;57.22;100799.13;5201680;28;20088;-83
2023/05/15 10:07:46;;;;;;;1.65;1.55;;;;;;;16.29;57.22;100804.69;5196610;28;20056;-83
2023/05/15 10:10:37;;;;;;;4.38;3.25;;;;;;;16.32;56.04;100799.25;5209443;28;20086;-82
2023/05/15 10:13:30;;;;;;;2.55;2.33;;;;;;;16.33;54.32;100803.59;5211899;28;20044;-83
2023/05/15 10:16:22;;;;;;;2.72;1.95;;;;;;;16.34;54.25;100806.16;5197882;28;20034;-84
2023/05/15 10:19:12;;;;;;;2.22;1.48;;;;;;;16.33;53.49;100801.81;5212456;28;20078;-83
2023/05/15 10:22:04;;;;;;;2.55;2.10;;;;;;;16.36;53.67;100791.06;5198167;28;20041;-83
2023/05/15 10:25:11;;;;;;;1.88;1.42;;;;;;;16.53;55.14;100792.00;5200092;28;20127;-83
2023/05/15 10:28:02;;;;;;;1.75;1.00;;;;;;;16.49;54.08;100793.97;5178706;28;20048;-83
2023/05/15 10:30:58;;;;;;;0.63;0.63;;;;;;;16.63;54.81;100790.59;5183486;28;20310;-84
2023/05/15 10:33:50;;;;;;;4.07;2.97;;;;;;;16.69;54.56;100792.09;5198987;28;20037;-83
2023/05/15 10:36:42;;;;;;;1.55;1.45;;;;;;;16.73;54.07;100787.50;5203042;28;20033;-83
2023/05/15 10:39:36;;;;;;;1.58;1.48;;;;;;;16.84;54.67;100782.47;5217627;28;20045;-83
2023/05/15 10:42:28;;;;;;;4.50;1.88;;;;;;;16.96;54.37;100781.00;5195023;28;20265;-84
2023/05/15 10:45:19;;;;;;;1.45;1.27;;;;;;;16.94;52.83;100773.13;5208907;28;20025;-84
2023/05/15 10:48:11;;;;;;;8.18;2.40;;;;;;;16.97;54.43;100766.81;5190054;28;20040;-85
2023/05/15 10:51:02;;;;;;;1.48;1.38;;;;;;;17.22;53.22;100770.78;5202950;28;20049;-84
2023/05/15 10:53:53;;;;;;;11.70;1.60;;;;;;;17.24;51.95;100767.09;5182524;28;20026;-84
2023/05/15 10:56:44;;;;;;;1.13;1.10;;;;;;;17.21;49.53;100767.28;5207434;28;20311;-83
2023/05/15 10:59:35;;;;;;;3.13;1.77;;;;;;;17.17;50.18;100759.59;5197095;28;20104;-83
2023/05/15 11:02:29;;;;;;;1.05;1.05;;;;;;;17.23;50.78;100764.56;5179435;28;20049;-83
2023/05/15 11:05:20;;;;;;;1.45;1.13;;;;;;;17.27;50.45;100760.81;5183182;28;20107;-83
2023/05/15 11:08:14;;;;;;;0.95;0.95;;;;;;;17.45;52.00;100758.94;5209835;28;20025;-81
2023/05/15 11:11:05;;;;;;;1.15;1.10;;;;;;;17.38;48.43;100757.56;5190546;28;20080;-82
2023/05/15 11:14:05;;;;;;;1.40;1.30;;;;;;;17.51;49.48;100755.94;5211007;28;20415;-84
2023/05/15 11:16:57;;;;;;;1.35;1.25;;;;;;;17.54;48.15;100747.81;5191906;28;20047;-85
2023/05/15 11:19:47;;;;;;;1.58;1.48;;;;;;;17.73;49.54;100757.38;5247755;23;20100;-88
2023/05/15 11:22:39;;;;;;;1.60;1.48;;;;;;;17.82;48.45;100750.69;5229797;28;20083;-91
2023/05/15 11:25:31;;;;;;;2.50;2.30;;;;;;;18.06;47.66;100744.00;5218062;28;20111;-89
2023/05/15 11:28:23;;;;;;;1.38;1.27;;;;;;;18.02;48.64;100746.94;5231741;28;20028;-85
2023/05/15 11:31:14;;;;;;;1.27;1.10;;;;;;;18.15;48.56;100737.28;5193470;28;20034;-85
2023/05/15 11:34:05;;;;;;;3.65;1.73;;;;;;;18.20;48.73;100740.53;5211063;28;20061;-85
2023/05/15 11:36:58;;;;;;;2.17;1.15;;;;;;;18.40;48.74;100733.19;5219366;28;20033;-84
2023/05/15 11:39:51;;;;;;;3.03;1.90;;;;;;;18.58;46.74;100733.88;5216996;28;20052;-85
2023/05/15 11:43:01;;;;;;;1.73;1.63;;;;;;;18.63;47.43;100726.47;5209458;28;20041;-83
2023/05/15 11:45:57;;;;;;;3.15;2.03;;;;;;;18.87;45.55;100717.94;5199162;28;20562;-84
2023/05/15 11:48:49;;;;;;;1.98;1.77;;;;;;;18.91;45.89;100724.78;5216493;28;20021;-84
2023/05/15 11:51:42;;;;;;;2.25;1.33;;;;;;;19.04;43.94;100714.28;5201842;28;20173;-83
2023/05/15 11:54:32;;;;;;;2.47;1.70;;;;;;;19.05;41.35;100710.66;5197612;28;20025;-84
2023/05/15 11:57:23;;;;;;;1.17;1.15;;;;;;;19.17;42.39;100709.03;5189557;28;20034;-84
2023/05/15 12:00:14;;;;;;;0.50;0.50;;;;;;;19.37;43.17;100706.91;5198765;28;20234;-87
2023/05/15 12:03:05;;;;;;;1.77;1.48;;;;;;;19.41;42.80;100705.75;5228766;28;20044;-85
2023/05/15 12:05:56;;;;;;;2.28;1.67;;;;;;;19.50;41.62;100716.66;5218695;28;20459;-87
2023/05/15 12:08:51;;;;;;;1.13;0.98;;;;;;;19.49;41.57;100709.63;5239158;28;20563;-82
2023/05/15 12:11:53;;;;;;;3.92;0.88;;;;;;;19.37;41.25;100715.75;5216427;28;20060;-88
2023/05/15 12:14:43;;;;;;;1.40;1.30;;;;;;;19.49;42.88;100698.13;5219880;28;20261;-84
2023/05/15 12:17:39;;;;;;;0.95;0.90;;;;;;;19.80;41.78;100699.59;5214656;28;20491;-83
2023/05/15 12:20:32;;;;;;;3.13;1.77;;;;;;;19.87;41.28;100701.91;5244610;28;20044;-84
2023/05/15 12:23:25;;;;;;;1.75;1.65;;;;;;;19.86;41.47;100689.56;5214252;28;20033;-84
2023/05/15 12:26:16;;;;;;;0.90;0.90;;;;;;;19.93;41.87;100698.84;5193000;28;20415;-84
2023/05/15 12:29:07;;;;;;;0.70;0.70;;;;;;;19.95;42.96;100699.59;5204239;28;20041;-85
2023/05/15 12:31:59;;;;;;;0.75;0.75;;;;;;;20.04;42.80;100703.44;5205748;28;20081;-84
2023/05/15 12:34:49;;;;;;;0.85;0.85;;;;;;;19.81;41.21;100693.34;5191164;28;20048;-83
2023/05/15 12:37:41;;;;;;;1.00;0.82;;;;;;;19.99;41.87;100701.09;5192293;28;20083;-83
2023/05/15 12:40:37;;;;;;;0.82;0.82;;;;;;;20.18;42.48;100700.69;5194074;28;20017;-86
2023/05/15 12:43:30;;;;;;;0.98;0.98;;;;;;;20.34;40.57;100700.50;5202079;28;20026;-84
2023/05/15 12:46:23;;;;;;;2.15;1.60;;;;;;;20.39;43.54;100692.19;5174227;28;20037;-83
2023/05/15 12:49:20;;;;;;;5.38;1.80;;;;;;;20.18;40.83;100689.19;5201460;28;20037;-83
2023/05/15 12:52:13;;;;;;;1.95;1.80;;;;;;;20.17;41.49;100692.81;5191927;28;20053;-84
2023/05/15 12:55:04;;;;;;;1.30;0.95;;;;;;;20.20;41.62;100687.28;5181890;28;20049;-86
2023/05/15 12:57:56;;;;;;;0.93;0.90;;;;;;;20.30;42.37;100683.00;5179818;28;20072;-83
2023/05/15 13:00:49;;;;;;;1.20;1.10;;;;;;;20.71;40.77;100678.44;5184460;28;20036;-83
2023/05/15 13:03:41;;;;;;;0.98;0.98;;;;;;;20.82;41.44;100683.91;5184153;28;20029;-85
2023/05/15 13:06:32;;;;;;;1.13;0.77;;;;;;;20.80;41.70;100684.94;5189645;28;20115;-85
2023/05/15 13:09:25;;;;;;;1.33;1.23;;;;;;;20.59;42.83;100688.16;5192166;28;20025;-84
2023/05/15 13:12:18;;;;;;;6.63;2.03;;;;;;;20.68;43.10;100687.50;5184034;28;20072;-83
2023/05/15 13:15:28;;;;;;;;;;;;;;;20.44;42.97;100682.94;5187933;28;20369;-84
2023/05/15 13:18:18;;;;;;;3.25;1.67;;;;;;;20.25;43.70;100690.47;5186767;28;19906;-84
2023/05/15 13:21:09;;;;;;;2.53;1.77;;;;;;;20.54;45.09;100684.94;5172289;28;20041;-89
2023/05/15 13:24:00;;;;;;;3.55;2.70;;;;;;;20.41;46.45;100691.13;5184387;28;20064;-85
2023/05/15 13:26:51;;;;;;;2.15;1.83;;;;;;;20.52;45.47;100690.38;5175856;28;20045;-85